createdAt,value
2019-02-26T00:02:33.121Z,90.10
2019-02-26T00:05:08.416Z,90.10
2019-02-26T00:07:51.569Z,90.10
2019-02-26T00:10:36.465Z,90.00
2019-02-26T00:13:18.711Z,89.90
2019-02-26T00:15:54.639Z,89.30
2019-02-26T00:18:36.611Z,88.90
2019-02-26T00:21:12.627Z,89.10
2019-02-26T00:23:55.016Z,89.10
2019-02-26T00:26:31.114Z,89.00
2019-02-26T00:29:21.165Z,88.90
2019-02-26T00:31:57.844Z,88.90
2019-02-26T00:34:34.605Z,88.80
2019-02-26T00:37:11.116Z,88.60
2019-02-26T00:39:47.508Z,88.20
2019-02-26T00:42:32.021Z,88.20
2019-02-26T00:45:08.014Z,88.90
2019-02-26T00:47:44.115Z,88.00
2019-02-26T00:50:30.183Z,88.20
2019-02-26T00:53:05.418Z,88.30
2019-02-26T00:55:47.601Z,88.30
2019-02-26T00:58:23.690Z,89.00
2019-02-26T01:01:10.255Z,89.60
2019-02-26T01:03:45.274Z,89.30
2019-02-26T01:06:28.894Z,89.80
2019-02-26T01:09:11.411Z,89.90
2019-02-26T01:11:54.305Z,89.60
2019-02-26T01:14:39.173Z,89.40
2019-02-26T01:17:16.476Z,89.20
2019-02-26T01:19:54.278Z,89.30
2019-02-26T01:22:31.098Z,89.30
2019-02-26T01:25:27.538Z,89.30
2019-02-26T01:28:03.514Z,89.70
2019-02-26T01:30:45.377Z,89.70
2019-02-26T01:33:22.336Z,89.90
2019-02-26T01:36:00.117Z,90.20
2019-02-26T01:38:39.485Z,90.10
2019-02-26T01:41:15.476Z,90.10
2019-02-26T01:43:50.924Z,90.20
2019-02-26T01:46:26.798Z,90.30
2019-02-26T01:49:08.838Z,90.60
2019-02-26T01:51:45.717Z,90.50
2019-02-26T01:54:16.745Z,90.60
2019-02-26T01:56:59.136Z,90.70
2019-02-26T01:59:41.533Z,90.70
2019-02-26T02:02:25.385Z,90.70
2019-02-26T02:05:03.188Z,90.60
2019-02-26T02:07:38.237Z,90.70
2019-02-26T02:10:21.926Z,90.70
2019-02-26T02:12:59.749Z,90.50
2019-02-26T02:15:35.709Z,90.60
2019-02-26T02:18:11.586Z,90.60
2019-02-26T02:20:47.511Z,90.60
2019-02-26T02:23:30.345Z,90.50
2019-02-26T02:26:07.150Z,90.40
2019-02-26T02:28:43.780Z,90.30
2019-02-26T02:31:22.009Z,90.30
2019-02-26T02:34:03.909Z,90.40
2019-02-26T02:36:39.674Z,90.20
2019-02-26T02:39:15.747Z,90.20
2019-02-26T02:41:59.819Z,90.30
2019-02-26T02:44:35.030Z,90.50
2019-02-26T02:47:16.883Z,90.20
2019-02-26T02:49:52.776Z,90.20
2019-02-26T02:52:30.379Z,90.20
2019-02-26T02:55:09.911Z,90.10
2019-02-26T02:57:48.668Z,90.00
2019-02-26T03:00:32.170Z,90.10
2019-02-26T03:03:06.405Z,90.00
2019-02-26T03:05:43.822Z,90.10
2019-02-26T03:08:22.040Z,89.60
2019-02-26T03:10:56.801Z,89.70
2019-02-26T03:13:32.070Z,89.60
2019-02-26T03:16:01.603Z,89.40
2019-02-26T03:18:44.529Z,89.30
2019-02-26T03:21:22.010Z,89.20
2019-02-26T03:24:06.220Z,89.50
2019-02-26T03:26:42.237Z,89.40
2019-02-26T03:29:18.514Z,89.60
2019-02-26T03:32:07.296Z,89.10
2019-02-26T03:34:43.241Z,89.10
2019-02-26T03:37:25.923Z,89.30
2019-02-26T03:40:05.943Z,89.50
2019-02-26T03:42:41.565Z,89.30
2019-02-26T03:45:31.090Z,89.50
2019-02-26T03:48:07.103Z,89.60
2019-02-26T03:50:49.746Z,89.70
2019-02-26T03:53:28.088Z,89.90
2019-02-26T03:56:14.264Z,89.70
2019-02-26T03:58:47.130Z,89.90
2019-02-26T04:01:22.925Z,90.00
2019-02-26T04:04:05.393Z,90.20
2019-02-26T04:06:45.922Z,90.10
2019-02-26T04:09:21.986Z,90.10
2019-02-26T04:11:56.789Z,90.10
2019-02-26T04:14:32.949Z,90.20
2019-02-26T04:17:09.139Z,90.70
2019-02-26T04:19:44.734Z,90.00
2019-02-26T04:22:27.891Z,90.10
2019-02-26T04:25:17.670Z,90.10
2019-02-26T04:28:19.768Z,90.10
2019-02-26T04:31:03.384Z,90.30
2019-02-26T04:33:58.897Z,90.30
2019-02-26T04:36:40.275Z,90.50
2019-02-26T04:39:49.525Z,90.30
2019-02-26T04:42:43.665Z,90.30
2019-02-26T04:45:39.107Z,90.30
2019-02-26T04:48:22.786Z,90.30
2019-02-26T04:51:03.928Z,90.00
2019-02-26T04:53:39.676Z,90.20
2019-02-26T04:56:15.526Z,90.10
2019-02-26T04:58:51.370Z,90.10
2019-02-26T05:01:34.784Z,90.10
2019-02-26T05:04:10.277Z,90.20
2019-02-26T05:06:52.591Z,90.30
2019-02-26T05:09:29.792Z,90.30
2019-02-26T05:12:05.221Z,90.00
2019-02-26T05:14:40.546Z,90.00
2019-02-26T05:17:18.498Z,90.30
2019-02-26T05:19:53.911Z,90.30
2019-02-26T05:22:31.033Z,90.30
2019-02-26T05:25:17.643Z,90.30
2019-02-26T05:27:59.221Z,90.20
2019-02-26T05:30:28.395Z,90.70
2019-02-26T05:33:05.560Z,90.30
2019-02-26T05:35:43.799Z,90.20
2019-02-26T05:38:18.320Z,90.50
2019-02-26T05:41:07.584Z,90.40
2019-02-26T05:44:10.648Z,90.50
2019-02-26T05:46:56.095Z,90.30
2019-02-26T05:49:33.829Z,90.40
2019-02-26T05:52:07.488Z,90.50
2019-02-26T05:54:43.347Z,90.50
2019-02-26T05:57:30.881Z,90.50
2019-02-26T06:00:04.308Z,90.40
2019-02-26T06:02:42.126Z,90.30
2019-02-26T06:05:26.039Z,90.30
2019-02-26T06:08:01.581Z,90.40
2019-02-26T06:10:36.872Z,90.60
2019-02-26T06:13:07.660Z,90.60
2019-02-26T06:15:51.510Z,90.50
2019-02-26T06:18:27.794Z,90.40
2019-02-26T06:21:03.776Z,90.40
2019-02-26T06:23:39.447Z,90.10
2019-02-26T06:26:17.719Z,90.20
2019-02-26T06:28:55.802Z,90.10
2019-02-26T06:31:32.144Z,89.90
2019-02-26T06:34:08.654Z,89.90
2019-02-26T06:36:46.569Z,90.10
2019-02-26T06:39:29.823Z,89.70
2019-02-26T06:42:07.551Z,89.30
2019-02-26T06:44:43.759Z,89.00
2019-02-26T06:47:21.180Z,88.80
2019-02-26T06:50:13.171Z,88.70
2019-02-26T06:52:54.981Z,88.40
2019-02-26T06:55:37.831Z,88.00
2019-02-26T06:58:26.050Z,87.80
2019-02-26T07:01:03.570Z,87.60
2019-02-26T07:03:32.736Z,87.10
2019-02-26T07:06:18.474Z,86.60
2019-02-26T07:08:59.538Z,86.30
2019-02-26T07:11:37.779Z,85.90
2019-02-26T07:14:12.606Z,85.10
2019-02-26T07:16:47.750Z,84.50
2019-02-26T07:19:23.883Z,84.00
2019-02-26T07:21:59.906Z,83.20
2019-02-26T07:24:44.529Z,82.80
2019-02-26T07:27:18.782Z,82.10
2019-02-26T07:30:01.046Z,82.00
2019-02-26T07:32:46.179Z,81.40
2019-02-26T07:35:20.924Z,81.10
2019-02-26T07:38:03.655Z,80.50
2019-02-26T07:40:33.102Z,79.80
2019-02-26T07:43:17.931Z,79.90
2019-02-26T07:45:53.686Z,79.50
2019-02-26T07:48:31.218Z,79.10
2019-02-26T07:50:59.862Z,78.90
2019-02-26T07:53:35.987Z,78.50
2019-02-26T07:56:11.311Z,78.90
2019-02-26T07:58:41.258Z,78.20
2019-02-26T08:01:23.575Z,77.10
2019-02-26T08:04:08.530Z,77.10
2019-02-26T08:06:43.900Z,76.80
2019-02-26T08:09:26.322Z,76.90
2019-02-26T08:12:02.453Z,76.40
2019-02-26T08:14:41.022Z,76.50
2019-02-26T08:17:22.603Z,75.10
2019-02-26T08:20:07.234Z,75.90
2019-02-26T08:22:41.414Z,76.20
2019-02-26T08:25:18.331Z,76.30
2019-02-26T08:27:56.387Z,75.80
2019-02-26T08:30:31.314Z,75.50
2019-02-26T08:33:07.484Z,75.50
2019-02-26T08:35:49.737Z,75.00
2019-02-26T08:38:29.384Z,75.00
2019-02-26T08:41:03.394Z,74.90
2019-02-26T08:43:47.076Z,74.20
2019-02-26T08:46:17.118Z,73.80
2019-02-26T08:48:53.538Z,73.80
2019-02-26T08:51:29.424Z,73.10
2019-02-26T08:54:20.505Z,73.00
2019-02-26T08:56:56.168Z,73.30
2019-02-26T08:59:38.440Z,71.20
2019-02-26T09:02:14.174Z,71.40
2019-02-26T09:04:56.536Z,70.70
2019-02-26T09:07:40.469Z,70.20
2019-02-26T09:10:20.479Z,70.60
2019-02-26T09:12:55.765Z,70.40
2019-02-26T09:15:40.772Z,69.30
2019-02-26T09:18:15.911Z,68.80
2019-02-26T09:20:58.318Z,67.80
2019-02-26T09:23:28.821Z,67.50
2019-02-26T09:26:11.122Z,66.40
2019-02-26T09:28:48.228Z,64.80
2019-02-26T09:31:23.835Z,64.60
2019-02-26T09:34:06.000Z,63.80
2019-02-26T09:36:55.581Z,60.40
2019-02-26T09:39:34.099Z,59.20
2019-02-26T09:42:09.981Z,58.30
2019-02-26T09:44:53.121Z,57.90
2019-02-26T09:47:31.583Z,57.60
2019-02-26T09:50:07.235Z,57.50
2019-02-26T09:52:50.821Z,57.30
2019-02-26T09:55:26.980Z,56.50
2019-02-26T09:58:02.719Z,57.00
2019-02-26T10:00:40.391Z,55.20
2019-02-26T10:03:35.650Z,54.40
2019-02-26T10:06:07.524Z,54.90
2019-02-26T10:08:45.721Z,55.90
2019-02-26T10:11:28.117Z,55.30
2019-02-26T10:14:05.302Z,55.00
2019-02-26T10:16:50.071Z,54.80
2019-02-26T10:19:25.129Z,54.70
2019-02-26T10:22:10.837Z,54.50
2019-02-26T10:24:51.569Z,53.60
2019-02-26T10:27:28.513Z,53.10
2019-02-26T10:30:16.217Z,53.70
2019-02-26T10:33:02.011Z,54.20
2019-02-26T10:35:44.415Z,54.00
2019-02-26T10:38:18.755Z,53.60
2019-02-26T10:40:56.839Z,53.90
2019-02-26T10:43:32.042Z,54.40
2019-02-26T10:46:08.165Z,54.70
2019-02-26T10:48:52.766Z,54.80
2019-02-26T10:51:27.315Z,54.50
2019-02-26T10:54:08.247Z,54.70
2019-02-26T10:56:54.710Z,54.50
2019-02-26T10:59:30.000Z,54.60
2019-02-26T11:02:05.518Z,54.80
2019-02-26T11:04:44.044Z,54.80
2019-02-26T11:07:26.420Z,54.20
2019-02-26T11:10:11.969Z,54.20
2019-02-26T11:12:48.247Z,54.30
2019-02-26T11:15:29.926Z,55.10
2019-02-26T11:18:04.332Z,54.50
2019-02-26T11:20:40.506Z,53.50
2019-02-26T11:23:16.258Z,53.80
2019-02-26T11:25:51.885Z,54.30
2019-02-26T11:28:37.883Z,53.80
2019-02-26T11:31:16.496Z,53.90
2019-02-26T11:34:01.003Z,53.10
2019-02-26T11:36:38.377Z,52.90
2019-02-26T11:39:13.761Z,52.90
2019-02-26T11:41:53.102Z,52.30
2019-02-26T11:44:27.725Z,52.40
2019-02-26T11:47:02.951Z,52.50
2019-02-26T11:49:46.627Z,52.20
2019-02-26T11:52:22.292Z,52.40
2019-02-26T11:54:58.889Z,51.30
2019-02-26T11:57:37.691Z,51.60
2019-02-26T12:00:42.783Z,51.50
2019-02-26T12:03:25.409Z,51.90
2019-02-26T12:06:01.967Z,51.70
2019-02-26T12:08:59.002Z,52.10
2019-02-26T12:11:41.057Z,52.00
2019-02-26T12:14:10.971Z,51.50
2019-02-26T12:16:54.525Z,51.50
2019-02-26T12:19:31.122Z,51.70
2019-02-26T12:22:14.904Z,51.60
2019-02-26T12:24:55.780Z,52.00
2019-02-26T12:27:36.102Z,51.90
2019-02-26T12:30:20.653Z,52.40
2019-02-26T12:33:02.441Z,51.60
2019-02-26T12:35:40.446Z,51.40
2019-02-26T12:38:21.885Z,50.80
2019-02-26T12:40:57.346Z,51.00
2019-02-26T12:43:42.704Z,51.30
2019-02-26T12:46:16.231Z,51.20
2019-02-26T12:48:58.258Z,51.10
2019-02-26T12:51:35.419Z,50.70
2019-02-26T12:54:18.102Z,50.80
2019-02-26T12:57:04.063Z,50.10
2019-02-26T12:59:37.996Z,49.90
2019-02-26T13:02:20.646Z,50.00
2019-02-26T13:04:57.255Z,50.40
2019-02-26T13:07:39.567Z,49.20
2019-02-26T13:10:22.713Z,49.50
2019-02-26T13:13:00.255Z,49.50
2019-02-26T13:15:36.264Z,50.00
2019-02-26T13:18:12.351Z,50.50
2019-02-26T13:20:52.043Z,50.50
2019-02-26T13:23:31.500Z,49.80
2019-02-26T13:28:52.767Z,50.30
2019-02-26T13:31:41.633Z,48.90
2019-02-26T13:34:14.135Z,48.50
2019-02-26T13:36:56.866Z,48.70
2019-02-26T13:39:38.441Z,48.90
2019-02-26T13:42:19.158Z,48.80
2019-02-26T13:44:54.521Z,49.20
2019-02-26T13:47:30.663Z,49.00
2019-02-26T13:49:59.850Z,49.40
2019-02-26T13:52:35.331Z,49.60
2019-02-26T13:55:12.151Z,48.80
2019-02-26T13:57:47.526Z,48.60
2019-02-26T14:00:26.667Z,48.60
2019-02-26T14:03:01.241Z,48.80
2019-02-26T14:05:38.510Z,49.20
2019-02-26T14:08:08.068Z,48.80
2019-02-26T14:10:44.014Z,48.80
2019-02-26T14:13:13.180Z,48.70
2019-02-26T14:15:48.664Z,48.80
2019-02-26T14:18:17.848Z,49.20
2019-02-26T14:20:47.121Z,48.90
2019-02-26T14:23:22.779Z,48.30
2019-02-26T14:25:58.511Z,48.70
2019-02-26T14:28:33.874Z,48.30
2019-02-26T14:31:03.080Z,48.40
2019-02-26T14:33:39.352Z,48.20
2019-02-26T14:36:08.537Z,48.30
2019-02-26T14:38:37.728Z,48.40
2019-02-26T14:41:13.091Z,48.30
2019-02-26T14:43:42.695Z,48.60
2019-02-26T14:46:24.656Z,48.70
2019-02-26T14:49:00.601Z,49.40
2019-02-26T14:51:43.124Z,49.20
2019-02-26T14:54:24.863Z,48.90
2019-02-26T14:57:00.834Z,49.30
2019-02-26T14:59:43.021Z,50.30
2019-02-26T15:02:19.169Z,49.10
2019-02-26T15:05:01.178Z,48.10
2019-02-26T15:07:37.270Z,48.30
2019-02-26T15:10:16.056Z,49.30
2019-02-26T15:12:58.496Z,48.70
2019-02-26T15:15:40.422Z,49.20
2019-02-26T15:18:22.701Z,49.20
2019-02-26T15:21:05.047Z,49.70
2019-02-26T15:23:40.687Z,49.10
2019-02-26T15:26:23.519Z,49.30
2019-02-26T15:28:59.163Z,49.20
2019-02-26T15:31:40.978Z,49.50
2019-02-26T15:34:10.228Z,49.60
2019-02-26T15:36:52.103Z,49.80
2019-02-26T15:39:27.660Z,50.00
2019-02-26T15:42:09.712Z,50.40
2019-02-26T15:44:45.550Z,50.20
2019-02-26T15:47:21.488Z,50.30
2019-02-26T15:49:57.634Z,50.90
2019-02-26T15:52:46.689Z,51.30
2019-02-26T15:55:34.406Z,52.60
2019-02-26T15:58:11.602Z,53.40
2019-02-26T16:00:47.869Z,53.80
2019-02-26T16:03:23.398Z,54.20
2019-02-26T16:06:06.454Z,54.50
2019-02-26T16:08:43.419Z,54.90
2019-02-26T16:11:25.795Z,55.00
2019-02-26T16:14:00.980Z,55.20
2019-02-26T16:16:43.427Z,55.50
2019-02-26T16:19:19.604Z,55.60
2019-02-26T16:21:55.751Z,55.80
2019-02-26T16:24:31.485Z,56.00
2019-02-26T16:27:00.668Z,56.10
2019-02-26T16:29:30.042Z,56.30
2019-02-26T16:32:05.613Z,56.50
2019-02-26T16:34:35.153Z,56.60
2019-02-26T16:37:11.474Z,56.80
2019-02-26T16:39:47.189Z,57.10
2019-02-26T16:42:30.526Z,56.90
2019-02-26T16:45:06.659Z,57.40
2019-02-26T16:47:43.329Z,58.30
2019-02-26T16:50:31.661Z,57.80
2019-02-26T16:53:14.310Z,58.00
2019-02-26T16:55:49.716Z,58.30
2019-02-26T16:58:18.934Z,58.80
2019-02-26T17:01:00.923Z,58.80
2019-02-26T17:03:36.249Z,58.90
2019-02-26T17:06:11.859Z,59.20
2019-02-26T17:08:47.991Z,59.40
2019-02-26T17:11:23.589Z,59.60
2019-02-26T17:14:00.681Z,59.50
2019-02-26T17:16:36.847Z,59.60
2019-02-26T17:19:15.122Z,59.80
2019-02-26T17:21:50.667Z,60.00
2019-02-26T17:24:32.804Z,60.40
2019-02-26T17:27:08.163Z,60.60
2019-02-26T17:29:44.132Z,60.70
2019-02-26T17:32:20.335Z,60.80
2019-02-26T17:35:02.548Z,61.20
2019-02-26T17:37:44.833Z,61.50
2019-02-26T17:40:29.723Z,61.40
2019-02-26T17:43:06.354Z,61.40
2019-02-26T17:45:48.222Z,61.60
2019-02-26T17:48:23.966Z,62.10
2019-02-26T17:51:06.014Z,62.50
2019-02-26T17:53:41.759Z,62.80
2019-02-26T17:56:26.489Z,63.20
2019-02-26T17:59:01.688Z,63.30
2019-02-26T18:01:44.240Z,63.70
2019-02-26T18:04:22.763Z,63.80
2019-02-26T18:07:04.464Z,64.10
2019-02-26T18:09:47.565Z,64.30
2019-02-26T18:12:31.098Z,64.50
2019-02-26T18:15:16.623Z,64.60
2019-02-26T18:17:57.674Z,64.70
2019-02-26T18:20:40.772Z,64.90
2019-02-26T18:23:17.018Z,65.00
2019-02-26T18:25:58.907Z,65.30
2019-02-26T18:28:36.672Z,65.50
2019-02-26T18:31:26.312Z,65.80
2019-02-26T18:33:56.448Z,66.00
2019-02-26T18:36:31.918Z,66.00
2019-02-26T18:39:14.546Z,66.30
2019-02-26T18:41:51.532Z,66.60
2019-02-26T18:44:33.544Z,66.40
2019-02-26T18:47:09.284Z,67.30
2019-02-26T18:49:44.939Z,66.60
2019-02-26T18:52:27.403Z,66.90
2019-02-26T18:54:56.919Z,67.10
2019-02-26T18:57:33.212Z,67.40
2019-02-26T19:00:20.609Z,67.50
2019-02-26T19:02:56.982Z,67.70
2019-02-26T19:05:39.468Z,67.80
2019-02-26T19:08:15.043Z,68.10
2019-02-26T19:10:56.787Z,68.20
2019-02-26T19:13:33.253Z,68.20
2019-02-26T19:16:20.472Z,68.90
2019-02-26T19:18:53.687Z,69.40
2019-02-26T19:21:36.193Z,69.70
2019-02-26T19:24:12.161Z,69.70
2019-02-26T19:26:54.306Z,70.00
2019-02-26T19:29:32.024Z,70.00
2019-02-26T19:32:08.035Z,70.50
2019-02-26T19:34:43.789Z,71.00
2019-02-26T19:37:22.286Z,71.30
2019-02-26T19:40:05.943Z,71.50
2019-02-26T19:42:42.699Z,71.30
2019-02-26T19:45:25.748Z,71.40
2019-02-26T19:48:01.611Z,71.40
2019-02-26T19:50:47.873Z,71.40
2019-02-26T19:53:20.979Z,71.50
2019-02-26T19:55:56.867Z,71.60
2019-02-26T19:58:32.286Z,71.90
2019-02-26T20:01:08.121Z,72.40
2019-02-26T20:03:40.204Z,72.40
2019-02-26T20:06:15.473Z,72.60
2019-02-26T20:08:44.732Z,72.70
2019-02-26T20:11:22.409Z,72.80
2019-02-26T20:13:51.327Z,73.00
2019-02-26T20:16:28.400Z,73.50
2019-02-26T20:18:59.166Z,73.70
2019-02-26T20:21:35.501Z,74.10
2019-02-26T20:24:10.854Z,74.30
2019-02-26T20:26:40.146Z,74.60
2019-02-26T20:29:22.337Z,74.80
2019-02-26T20:31:58.207Z,75.00
2019-02-26T20:34:34.013Z,75.10
2019-02-26T20:37:09.822Z,75.10
2019-02-26T20:39:40.893Z,75.10
2019-02-26T20:42:16.432Z,75.20
2019-02-26T20:44:45.675Z,75.40
2019-02-26T20:47:22.823Z,75.50
2019-02-26T20:49:51.997Z,75.50
2019-02-26T20:52:34.828Z,75.80
2019-02-26T20:55:16.693Z,75.90
2019-02-26T20:58:01.044Z,75.90
2019-02-26T21:00:42.344Z,75.90
2019-02-26T21:03:14.909Z,76.00
2019-02-26T21:05:50.158Z,76.10
2019-02-26T21:08:32.052Z,76.40
2019-02-26T21:11:07.345Z,76.40
2019-02-26T21:13:49.926Z,76.40
2019-02-26T21:16:25.300Z,76.20
2019-02-26T21:19:07.217Z,76.40
2019-02-26T21:21:50.122Z,76.60
2019-02-26T21:24:25.414Z,77.00
2019-02-26T21:27:14.566Z,76.80
2019-02-26T21:29:56.771Z,76.90
2019-02-26T21:32:26.311Z,76.90
2019-02-26T21:35:02.293Z,76.90
2019-02-26T21:37:38.016Z,76.90
2019-02-26T21:40:18.196Z,76.90
2019-02-26T21:42:47.379Z,77.10
2019-02-26T21:45:29.299Z,76.80
2019-02-26T21:48:11.713Z,76.90
2019-02-26T21:50:41.158Z,76.70
2019-02-26T21:53:22.678Z,76.80
2019-02-26T21:56:05.047Z,77.10
2019-02-26T21:58:40.330Z,77.10
2019-02-26T22:01:15.988Z,77.40
2019-02-26T22:03:51.390Z,77.70
2019-02-26T22:06:27.517Z,77.60
2019-02-26T22:09:03.730Z,77.50
2019-02-26T22:11:52.433Z,77.30
2019-02-26T22:14:36.886Z,77.40
2019-02-26T22:17:17.892Z,77.70
2019-02-26T22:19:53.962Z,77.70
2019-02-26T22:22:36.662Z,77.60
2019-02-26T22:25:20.539Z,77.70
2019-02-26T22:27:56.564Z,77.80
2019-02-26T22:30:31.975Z,78.00
2019-02-26T22:33:08.000Z,78.00
2019-02-26T22:35:44.284Z,78.00
2019-02-26T22:38:26.604Z,78.10
2019-02-26T22:41:08.329Z,78.10
2019-02-26T22:43:44.780Z,78.00
2019-02-26T22:46:20.995Z,78.10
2019-02-26T22:48:57.295Z,78.00
2019-02-26T22:51:32.744Z,77.80
2019-02-26T22:54:01.923Z,77.80
2019-02-26T22:56:37.241Z,77.70
2019-02-26T22:59:13.238Z,77.70
2019-02-26T23:01:49.821Z,78.00
2019-02-26T23:04:25.595Z,78.00
2019-02-26T23:07:07.520Z,78.40
2019-02-26T23:09:43.406Z,78.60
2019-02-26T23:12:30.132Z,79.00
2019-02-26T23:15:05.655Z,79.10
2019-02-26T23:17:47.436Z,79.30
2019-02-26T23:20:29.904Z,79.20
2019-02-26T23:23:12.340Z,79.10
2019-02-26T23:25:48.897Z,79.00
2019-02-26T23:28:31.113Z,78.80
2019-02-26T23:31:07.126Z,79.10
2019-02-26T23:33:49.166Z,79.50
2019-02-26T23:36:25.715Z,80.20
2019-02-26T23:39:08.260Z,80.90
2019-02-26T23:41:43.917Z,81.70
2019-02-26T23:44:21.000Z,82.20
2019-02-26T23:46:50.216Z,82.00
2019-02-26T23:49:26.501Z,82.50
2019-02-26T23:51:55.723Z,82.80
2019-02-26T23:54:31.997Z,82.70
2019-02-26T23:57:13.709Z,82.60
2019-02-26T23:59:55.763Z,82.30
